sensor_id;sensor_type;location;lat;lon;timestamp;P1;P2;P0
77320;PMS7003;66382;52.252;8.780;2022-12-29T00:01:08;3.00;3.00;2.00
77320;PMS7003;66382;52.252;8.780;2022-12-29T00:03:33;2.00;2.00;2.00
77320;PMS7003;66382;52.252;8.780;2022-12-29T00:05:59;0.67;0.67;0.00
77320;PMS7003;66382;52.252;8.780;2022-12-29T00:08:24;1.00;1.00;1.00
77320;PMS7003;66382;52.252;8.780;2022-12-29T00:10:50;1.00;1.00;0.67
77320;PMS7003;66382;52.252;8.780;2022-12-29T00:13:15;1.00;1.00;1.00
77320;PMS7003;66382;52.252;8.780;2022-12-29T00:15:40;1.67;1.67;1.67
77320;PMS7003;66382;52.252;8.780;2022-12-29T00:18:07;1.00;1.00;1.00
77320;PMS7003;66382;52.252;8.780;2022-12-29T00:20:33;1.67;1.67;1.33
77320;PMS7003;66382;52.252;8.780;2022-12-29T00:22:59;0.00;0.00;0.00
77320;PMS7003;66382;52.252;8.780;2022-12-29T00:25:24;1.00;1.00;1.00
77320;PMS7003;66382;52.252;8.780;2022-12-29T00:27:50;1.33;1.33;1.00
77320;PMS7003;66382;52.252;8.780;2022-12-29T00:30:16;1.00;1.00;1.00
77320;PMS7003;66382;52.252;8.780;2022-12-29T00:32:43;0.00;0.00;0.00
77320;PMS7003;66382;52.252;8.780;2022-12-29T00:35:11;1.00;1.00;1.00
77320;PMS7003;66382;52.252;8.780;2022-12-29T00:37:40;1.00;1.00;0.67
77320;PMS7003;66382;52.252;8.780;2022-12-29T00:40:08;1.00;1.00;1.00
77320;PMS7003;66382;52.252;8.780;2022-12-29T00:42:34;2.00;2.00;2.00
77320;PMS7003;66382;52.252;8.780;2022-12-29T00:44:59;1.00;1.00;1.00
77320;PMS7003;66382;52.252;8.780;2022-12-29T00:47:25;2.00;2.00;2.00
77320;PMS7003;66382;52.252;8.780;2022-12-29T00:49:50;1.00;1.00;1.00
77320;PMS7003;66382;52.252;8.780;2022-12-29T00:52:17;0.00;0.00;0.00
77320;PMS7003;66382;52.252;8.780;2022-12-29T00:54:43;1.00;1.00;1.00
77320;PMS7003;66382;52.252;8.780;2022-12-29T00:57:09;2.00;2.00;1.00
77320;PMS7003;66382;52.252;8.780;2022-12-29T00:59:34;1.67;1.67;1.00
77320;PMS7003;66382;52.252;8.780;2022-12-29T01:02:00;1.00;1.00;1.00
77320;PMS7003;66382;52.252;8.780;2022-12-29T01:04:26;1.00;1.00;1.00
77320;PMS7003;66382;52.252;8.780;2022-12-29T01:06:51;1.00;1.00;1.00
77320;PMS7003;66382;52.252;8.780;2022-12-29T01:09:19;1.00;1.00;1.00
77320;PMS7003;66382;52.252;8.780;2022-12-29T01:11:44;0.33;0.33;0.33
77320;PMS7003;66382;52.252;8.780;2022-12-29T01:14:10;1.00;1.00;1.00
77320;PMS7003;66382;52.252;8.780;2022-12-29T01:16:35;1.00;1.00;1.00
77320;PMS7003;66382;52.252;8.780;2022-12-29T01:19:00;1.00;1.00;1.00
77320;PMS7003;66382;52.252;8.780;2022-12-29T01:21:26;1.00;1.00;1.00
77320;PMS7003;66382;52.252;8.780;2022-12-29T01:23:51;1.00;1.00;1.00
77320;PMS7003;66382;52.252;8.780;2022-12-29T01:26:18;1.00;1.00;1.00
77320;PMS7003;66382;52.252;8.780;2022-12-29T01:28:44;1.00;1.00;1.00
77320;PMS7003;66382;52.252;8.780;2022-12-29T01:31:10;1.00;1.00;1.00
77320;PMS7003;66382;52.252;8.780;2022-12-29T01:33:36;0.33;0.33;0.33
77320;PMS7003;66382;52.252;8.780;2022-12-29T01:36:02;1.00;1.00;1.00
77320;PMS7003;66382;52.252;8.780;2022-12-29T01:38:29;1.00;1.00;1.00
77320;PMS7003;66382;52.252;8.780;2022-12-29T01:40:54;1.00;1.00;1.00
77320;PMS7003;66382;52.252;8.780;2022-12-29T01:43:21;2.00;2.00;1.67
77320;PMS7003;66382;52.252;8.780;2022-12-29T01:46:03;2.00;2.00;1.00
77320;PMS7003;66382;52.252;8.780;2022-12-29T01:48:29;1.00;1.00;1.00
77320;PMS7003;66382;52.252;8.780;2022-12-29T01:50:54;1.00;1.00;0.00
77320;PMS7003;66382;52.252;8.780;2022-12-29T01:53:21;1.00;1.00;1.00
77320;PMS7003;66382;52.252;8.780;2022-12-29T01:55:51;0.00;0.00;0.00
77320;PMS7003;66382;52.252;8.780;2022-12-29T01:58:22;2.00;2.00;1.33
77320;PMS7003;66382;52.252;8.780;2022-12-29T02:00:51;1.33;1.33;1.00
77320;PMS7003;66382;52.252;8.780;2022-12-29T02:03:17;0.00;0.00;0.00
77320;PMS7003;66382;52.252;8.780;2022-12-29T02:05:47;1.00;1.00;0.33
77320;PMS7003;66382;52.252;8.780;2022-12-29T02:08:17;0.00;0.00;0.00
77320;PMS7003;66382;52.252;8.780;2022-12-29T02:10:44;0.00;0.00;0.00
77320;PMS7003;66382;52.252;8.780;2022-12-29T02:13:10;0.00;0.00;0.00
77320;PMS7003;66382;52.252;8.780;2022-12-29T02:15:39;0.00;0.00;0.00
77320;PMS7003;66382;52.252;8.780;2022-12-29T02:18:18;0.00;0.00;0.00
77320;PMS7003;66382;52.252;8.780;2022-12-29T02:21:05;0.00;0.00;0.00
77320;PMS7003;66382;52.252;8.780;2022-12-29T02:23:54;0.00;0.00;0.00
77320;PMS7003;66382;52.252;8.780;2022-12-29T02:26:45;0.00;0.00;0.00
77320;PMS7003;66382;52.252;8.780;2022-12-29T02:29:32;0.00;0.00;0.00
77320;PMS7003;66382;52.252;8.780;2022-12-29T02:32:18;0.00;0.00;0.00
77320;PMS7003;66382;52.252;8.780;2022-12-29T02:34:55;0.00;0.00;0.00
77320;PMS7003;66382;52.252;8.780;2022-12-29T02:37:28;0.00;0.00;0.00
77320;PMS7003;66382;52.252;8.780;2022-12-29T02:40:00;0.00;0.00;0.00
77320;PMS7003;66382;52.252;8.780;2022-12-29T02:42:33;0.00;0.00;0.00
77320;PMS7003;66382;52.252;8.780;2022-12-29T02:45:07;0.00;0.00;0.00
77320;PMS7003;66382;52.252;8.780;2022-12-29T02:47:42;0.00;0.00;0.00
77320;PMS7003;66382;52.252;8.780;2022-12-29T02:50:15;0.00;0.00;0.00
77320;PMS7003;66382;52.252;8.780;2022-12-29T02:52:47;0.00;0.00;0.00
77320;PMS7003;66382;52.252;8.780;2022-12-29T02:55:15;0.00;0.00;0.00
77320;PMS7003;66382;52.252;8.780;2022-12-29T02:57:41;0.00;0.00;0.00
77320;PMS7003;66382;52.252;8.780;2022-12-29T03:00:07;0.00;0.00;0.00
77320;PMS7003;66382;52.252;8.780;2022-12-29T03:02:41;0.00;0.00;0.00
77320;PMS7003;66382;52.252;8.780;2022-12-29T03:05:38;0.00;0.00;0.00
77320;PMS7003;66382;52.252;8.780;2022-12-29T03:08:18;0.00;0.00;0.00
77320;PMS7003;66382;52.252;8.780;2022-12-29T03:10:55;0.00;0.00;0.00
77320;PMS7003;66382;52.252;8.780;2022-12-29T03:13:26;0.00;0.00;0.00
77320;PMS7003;66382;52.252;8.780;2022-12-29T03:16:00;0.00;0.00;0.00
77320;PMS7003;66382;52.252;8.780;2022-12-29T03:18:36;0.00;0.00;0.00
77320;PMS7003;66382;52.252;8.780;2022-12-29T03:21:10;0.00;0.00;0.00
77320;PMS7003;66382;52.252;8.780;2022-12-29T03:23:40;0.00;0.00;0.00
77320;PMS7003;66382;52.252;8.780;2022-12-29T03:26:10;0.00;0.00;0.00
77320;PMS7003;66382;52.252;8.780;2022-12-29T03:28:37;0.00;0.00;0.00
77320;PMS7003;66382;52.252;8.780;2022-12-29T03:31:08;0.00;0.00;0.00
77320;PMS7003;66382;52.252;8.780;2022-12-29T03:33:36;0.00;0.00;0.00
77320;PMS7003;66382;52.252;8.780;2022-12-29T03:36:04;0.00;0.00;0.00
77320;PMS7003;66382;52.252;8.780;2022-12-29T03:38:35;0.00;0.00;0.00
77320;PMS7003;66382;52.252;8.780;2022-12-29T03:41:08;0.00;0.00;0.00
77320;PMS7003;66382;52.252;8.780;2022-12-29T03:43:37;0.00;0.00;0.00
77320;PMS7003;66382;52.252;8.780;2022-12-29T03:46:03;0.00;0.00;0.00
77320;PMS7003;66382;52.252;8.780;2022-12-29T03:48:28;0.00;0.00;0.00
77320;PMS7003;66382;52.252;8.780;2022-12-29T03:50:55;0.00;0.00;0.00
77320;PMS7003;66382;52.252;8.780;2022-12-29T03:53:21;0.00;0.00;0.00
77320;PMS7003;66382;52.252;8.780;2022-12-29T03:55:46;0.00;0.00;0.00
77320;PMS7003;66382;52.252;8.780;2022-12-29T03:58:11;0.00;0.00;0.00
77320;PMS7003;66382;52.252;8.780;2022-12-29T04:00:37;0.00;0.00;0.00
77320;PMS7003;66382;52.252;8.780;2022-12-29T04:03:02;0.00;0.00;0.00
77320;PMS7003;66382;52.252;8.780;2022-12-29T04:05:28;0.00;0.00;0.00
77320;PMS7003;66382;52.252;8.780;2022-12-29T04:07:55;0.00;0.00;0.00
77320;PMS7003;66382;52.252;8.780;2022-12-29T04:10:20;0.00;0.00;0.00
77320;PMS7003;66382;52.252;8.780;2022-12-29T04:12:45;0.00;0.00;0.00
77320;PMS7003;66382;52.252;8.780;2022-12-29T04:15:11;0.00;0.00;0.00
77320;PMS7003;66382;52.252;8.780;2022-12-29T04:17:36;0.00;0.00;0.00
77320;PMS7003;66382;52.252;8.780;2022-12-29T04:20:02;0.00;0.00;0.00
77320;PMS7003;66382;52.252;8.780;2022-12-29T04:22:28;0.00;0.00;0.00
77320;PMS7003;66382;52.252;8.780;2022-12-29T04:24:55;0.00;0.00;0.00
77320;PMS7003;66382;52.252;8.780;2022-12-29T04:27:20;0.00;0.00;0.00
77320;PMS7003;66382;52.252;8.780;2022-12-29T04:29:46;0.00;0.00;0.00
77320;PMS7003;66382;52.252;8.780;2022-12-29T04:32:11;0.00;0.00;0.00
77320;PMS7003;66382;52.252;8.780;2022-12-29T04:34:36;0.00;0.00;0.00
77320;PMS7003;66382;52.252;8.780;2022-12-29T04:37:02;0.00;0.00;0.00
77320;PMS7003;66382;52.252;8.780;2022-12-29T04:39:27;0.00;0.00;0.00
77320;PMS7003;66382;52.252;8.780;2022-12-29T04:41:54;0.00;0.00;0.00
77320;PMS7003;66382;52.252;8.780;2022-12-29T04:44:20;0.00;0.00;0.00
77320;PMS7003;66382;52.252;8.780;2022-12-29T04:46:45;0.00;0.00;0.00
77320;PMS7003;66382;52.252;8.780;2022-12-29T04:49:10;0.00;0.00;0.00
77320;PMS7003;66382;52.252;8.780;2022-12-29T04:51:36;0.00;0.00;0.00
77320;PMS7003;66382;52.252;8.780;2022-12-29T04:54:01;0.00;0.00;0.00
77320;PMS7003;66382;52.252;8.780;2022-12-29T04:56:27;0.00;0.00;0.00
77320;PMS7003;66382;52.252;8.780;2022-12-29T04:58:54;0.00;0.00;0.00
77320;PMS7003;66382;52.252;8.780;2022-12-29T05:01:19;0.00;0.00;0.00
77320;PMS7003;66382;52.252;8.780;2022-12-29T05:03:45;0.00;0.00;0.00
77320;PMS7003;66382;52.252;8.780;2022-12-29T05:06:10;0.00;0.00;0.00
77320;PMS7003;66382;52.252;8.780;2022-12-29T05:08:35;0.00;0.00;0.00
77320;PMS7003;66382;52.252;8.780;2022-12-29T05:11:01;0.00;0.00;0.00
77320;PMS7003;66382;52.252;8.780;2022-12-29T05:13:26;0.00;0.00;0.00
77320;PMS7003;66382;52.252;8.780;2022-12-29T05:15:53;0.00;0.00;0.00
77320;PMS7003;66382;52.252;8.780;2022-12-29T05:18:19;0.00;0.00;0.00
77320;PMS7003;66382;52.252;8.780;2022-12-29T05:20:44;0.00;0.00;0.00
77320;PMS7003;66382;52.252;8.780;2022-12-29T05:23:10;0.00;0.00;0.00
77320;PMS7003;66382;52.252;8.780;2022-12-29T05:25:36;0.00;0.00;0.00
77320;PMS7003;66382;52.252;8.780;2022-12-29T05:28:01;0.00;0.00;0.00
77320;PMS7003;66382;52.252;8.780;2022-12-29T05:30:27;0.00;0.00;0.00
77320;PMS7003;66382;52.252;8.780;2022-12-29T05:32:53;0.00;0.00;0.00
77320;PMS7003;66382;52.252;8.780;2022-12-29T05:35:19;0.00;0.00;0.00
77320;PMS7003;66382;52.252;8.780;2022-12-29T05:37:44;0.00;0.00;0.00
77320;PMS7003;66382;52.252;8.780;2022-12-29T05:40:10;0.00;0.00;0.00
77320;PMS7003;66382;52.252;8.780;2022-12-29T05:42:36;0.00;0.00;0.00
77320;PMS7003;66382;52.252;8.780;2022-12-29T05:45:02;0.00;0.00;0.00
77320;PMS7003;66382;52.252;8.780;2022-12-29T05:47:28;0.00;0.00;0.00
77320;PMS7003;66382;52.252;8.780;2022-12-29T05:49:55;0.00;0.00;0.00
77320;PMS7003;66382;52.252;8.780;2022-12-29T05:52:20;0.00;0.00;0.00
77320;PMS7003;66382;52.252;8.780;2022-12-29T05:54:46;0.00;0.00;0.00
77320;PMS7003;66382;52.252;8.780;2022-12-29T05:57:11;0.00;0.00;0.00
77320;PMS7003;66382;52.252;8.780;2022-12-29T05:59:37;0.00;0.00;0.00
77320;PMS7003;66382;52.252;8.780;2022-12-29T06:02:02;0.00;0.00;0.00
77320;PMS7003;66382;52.252;8.780;2022-12-29T06:04:28;0.00;0.00;0.00
77320;PMS7003;66382;52.252;8.780;2022-12-29T06:06:55;0.00;0.00;0.00
77320;PMS7003;66382;52.252;8.780;2022-12-29T06:09:20;0.00;0.00;0.00
77320;PMS7003;66382;52.252;8.780;2022-12-29T06:11:45;0.00;0.00;0.00
77320;PMS7003;66382;52.252;8.780;2022-12-29T06:14:11;0.00;0.00;0.00
77320;PMS7003;66382;52.252;8.780;2022-12-29T06:16:36;0.00;0.00;0.00
77320;PMS7003;66382;52.252;8.780;2022-12-29T06:19:02;0.00;0.00;0.00
77320;PMS7003;66382;52.252;8.780;2022-12-29T06:21:27;0.00;0.00;0.00
77320;PMS7003;66382;52.252;8.780;2022-12-29T06:23:54;1.00;1.00;1.00
77320;PMS7003;66382;52.252;8.780;2022-12-29T06:26:19;0.00;0.00;0.00
77320;PMS7003;66382;52.252;8.780;2022-12-29T06:28:45;0.00;0.00;0.00
77320;PMS7003;66382;52.252;8.780;2022-12-29T06:31:11;0.00;0.00;0.00
77320;PMS7003;66382;52.252;8.780;2022-12-29T06:33:36;1.00;1.00;1.00
77320;PMS7003;66382;52.252;8.780;2022-12-29T06:36:02;0.00;0.00;0.00
77320;PMS7003;66382;52.252;8.780;2022-12-29T06:38:28;0.00;0.00;0.00
77320;PMS7003;66382;52.252;8.780;2022-12-29T06:40:55;0.00;0.00;0.00
77320;PMS7003;66382;52.252;8.780;2022-12-29T06:43:20;0.00;0.00;0.00
77320;PMS7003;66382;52.252;8.780;2022-12-29T06:45:46;0.00;0.00;0.00
77320;PMS7003;66382;52.252;8.780;2022-12-29T06:48:11;0.00;0.00;0.00
77320;PMS7003;66382;52.252;8.780;2022-12-29T06:50:37;0.00;0.00;0.00
77320;PMS7003;66382;52.252;8.780;2022-12-29T06:53:02;0.00;0.00;0.00
77320;PMS7003;66382;52.252;8.780;2022-12-29T06:55:27;0.00;0.00;0.00
77320;PMS7003;66382;52.252;8.780;2022-12-29T06:57:55;0.00;0.00;0.00
77320;PMS7003;66382;52.252;8.780;2022-12-29T07:00:20;0.00;0.00;0.00
77320;PMS7003;66382;52.252;8.780;2022-12-29T07:02:46;0.00;0.00;0.00
77320;PMS7003;66382;52.252;8.780;2022-12-29T07:05:11;0.00;0.00;0.00
77320;PMS7003;66382;52.252;8.780;2022-12-29T07:07:37;0.00;0.00;0.00
77320;PMS7003;66382;52.252;8.780;2022-12-29T07:10:02;0.00;0.00;0.00
77320;PMS7003;66382;52.252;8.780;2022-12-29T07:12:28;0.25;0.25;0.00
77320;PMS7003;66382;52.252;8.780;2022-12-29T07:14:55;1.00;1.00;1.00
77320;PMS7003;66382;52.252;8.780;2022-12-29T07:17:20;0.75;0.75;0.00
77320;PMS7003;66382;52.252;8.780;2022-12-29T07:19:46;3.75;3.75;3.00
77320;PMS7003;66382;52.252;8.780;2022-12-29T07:22:11;3.00;3.00;3.00
77320;PMS7003;66382;52.252;8.780;2022-12-29T07:24:37;5.00;5.00;4.00
77320;PMS7003;66382;52.252;8.780;2022-12-29T07:27:02;2.50;2.50;2.00
77320;PMS7003;66382;52.252;8.780;2022-12-29T07:29:28;8.00;8.00;6.00
77320;PMS7003;66382;52.252;8.780;2022-12-29T07:31:55;2.00;2.00;2.00
77320;PMS7003;66382;52.252;8.780;2022-12-29T07:34:21;4.00;4.00;3.25
77320;PMS7003;66382;52.252;8.780;2022-12-29T07:36:46;0.75;0.75;0.00
77320;PMS7003;66382;52.252;8.780;2022-12-29T07:39:11;0.00;0.00;0.00
77320;PMS7003;66382;52.252;8.780;2022-12-29T07:41:37;3.00;3.00;2.00
77320;PMS7003;66382;52.252;8.780;2022-12-29T07:44:02;12.75;12.75;11.50
77320;PMS7003;66382;52.252;8.780;2022-12-29T07:46:28;11.50;11.50;9.50
77320;PMS7003;66382;52.252;8.780;2022-12-29T07:48:55;2.75;2.75;2.75
77320;PMS7003;66382;52.252;8.780;2022-12-29T07:51:20;1.00;1.00;1.00
77320;PMS7003;66382;52.252;8.780;2022-12-29T07:53:46;1.00;1.00;1.00
77320;PMS7003;66382;52.252;8.780;2022-12-29T07:56:11;1.00;1.00;1.00
77320;PMS7003;66382;52.252;8.780;2022-12-29T07:58:37;1.00;1.00;1.00
77320;PMS7003;66382;52.252;8.780;2022-12-29T08:01:02;0.00;0.00;0.00
77320;PMS7003;66382;52.252;8.780;2022-12-29T08:03:28;1.00;1.00;0.00
77320;PMS7003;66382;52.252;8.780;2022-12-29T08:05:55;0.00;0.00;0.00
77320;PMS7003;66382;52.252;8.780;2022-12-29T08:08:21;0.00;0.00;0.00
77320;PMS7003;66382;52.252;8.780;2022-12-29T08:10:47;0.00;0.00;0.00
77320;PMS7003;66382;52.252;8.780;2022-12-29T08:13:12;0.00;0.00;0.00
77320;PMS7003;66382;52.252;8.780;2022-12-29T08:15:38;0.00;0.00;0.00
77320;PMS7003;66382;52.252;8.780;2022-12-29T08:18:03;2.00;2.00;2.00
77320;PMS7003;66382;52.252;8.780;2022-12-29T08:20:29;11.75;11.75;8.00
77320;PMS7003;66382;52.252;8.780;2022-12-29T08:22:56;4.00;4.00;3.25
77320;PMS7003;66382;52.252;8.780;2022-12-29T08:25:21;3.25;3.25;3.25
77320;PMS7003;66382;52.252;8.780;2022-12-29T08:27:47;1.00;1.00;0.75
77320;PMS7003;66382;52.252;8.780;2022-12-29T08:30:12;1.00;1.00;1.00
77320;PMS7003;66382;52.252;8.780;2022-12-29T08:32:38;0.00;0.00;0.00
77320;PMS7003;66382;52.252;8.780;2022-12-29T08:35:04;0.00;0.00;0.00
77320;PMS7003;66382;52.252;8.780;2022-12-29T08:37:31;1.00;1.00;1.00
77320;PMS7003;66382;52.252;8.780;2022-12-29T08:39:58;0.75;0.75;0.75
77320;PMS7003;66382;52.252;8.780;2022-12-29T08:42:24;0.00;0.00;0.00
77320;PMS7003;66382;52.252;8.780;2022-12-29T08:44:49;1.00;1.00;0.00
77320;PMS7003;66382;52.252;8.780;2022-12-29T08:47:15;0.75;0.75;0.75
77320;PMS7003;66382;52.252;8.780;2022-12-29T08:49:40;0.00;0.00;0.00
77320;PMS7003;66382;52.252;8.780;2022-12-29T08:52:05;1.00;1.00;0.00
77320;PMS7003;66382;52.252;8.780;2022-12-29T08:54:32;1.75;1.00;1.00
77320;PMS7003;66382;52.252;8.780;2022-12-29T08:56:59;1.00;1.00;1.00
77320;PMS7003;66382;52.252;8.780;2022-12-29T08:59:25;0.25;0.25;0.00
77320;PMS7003;66382;52.252;8.780;2022-12-29T09:01:50;1.00;1.00;1.00
77320;PMS7003;66382;52.252;8.780;2022-12-29T09:04:16;0.00;0.00;0.00
77320;PMS7003;66382;52.252;8.780;2022-12-29T09:06:41;0.25;0.25;0.00
77320;PMS7003;66382;52.252;8.780;2022-12-29T09:09:07;1.00;1.00;1.00
77320;PMS7003;66382;52.252;8.780;2022-12-29T09:11:33;1.00;1.00;1.00
77320;PMS7003;66382;52.252;8.780;2022-12-29T09:14:00;1.50;1.50;1.00
77320;PMS7003;66382;52.252;8.780;2022-12-29T09:16:25;1.00;1.00;0.00
77320;PMS7003;66382;52.252;8.780;2022-12-29T09:18:50;2.00;2.00;2.00
77320;PMS7003;66382;52.252;8.780;2022-12-29T09:21:16;1.00;1.00;1.00
77320;PMS7003;66382;52.252;8.780;2022-12-29T09:23:41;3.00;3.00;2.00
77320;PMS7003;66382;52.252;8.780;2022-12-29T09:26:07;6.25;6.25;5.50
77320;PMS7003;66382;52.252;8.780;2022-12-29T09:28:33;4.25;4.25;3.50
77320;PMS7003;66382;52.252;8.780;2022-12-29T09:31:00;1.67;1.67;1.33
77320;PMS7003;66382;52.252;8.780;2022-12-29T09:33:26;2.00;2.00;2.00
77320;PMS7003;66382;52.252;8.780;2022-12-29T09:35:52;2.00;2.00;1.67
77320;PMS7003;66382;52.252;8.780;2022-12-29T09:38:19;2.00;2.00;1.00
77320;PMS7003;66382;52.252;8.780;2022-12-29T09:40:45;1.00;1.00;1.00
77320;PMS7003;66382;52.252;8.780;2022-12-29T09:43:22;1.00;1.00;1.00
77320;PMS7003;66382;52.252;8.780;2022-12-29T09:46:02;2.00;2.00;2.00
77320;PMS7003;66382;52.252;8.780;2022-12-29T09:48:37;1.33;1.33;1.00
77320;PMS7003;66382;52.252;8.780;2022-12-29T09:51:08;6.00;6.00;5.00
77320;PMS7003;66382;52.252;8.780;2022-12-29T09:53:39;2.00;2.00;2.00
77320;PMS7003;66382;52.252;8.780;2022-12-29T09:56:10;2.00;2.00;2.00
77320;PMS7003;66382;52.252;8.780;2022-12-29T09:58:40;2.00;2.00;1.67
77320;PMS7003;66382;52.252;8.780;2022-12-29T10:01:14;1.00;1.00;1.00
77320;PMS7003;66382;52.252;8.780;2022-12-29T10:03:48;1.00;1.00;0.33
77320;PMS7003;66382;52.252;8.780;2022-12-29T10:06:17;1.00;1.00;0.00
77320;PMS7003;66382;52.252;8.780;2022-12-29T10:08:47;1.00;1.00;1.00
77320;PMS7003;66382;52.252;8.780;2022-12-29T10:11:25;2.00;2.00;2.00
77320;PMS7003;66382;52.252;8.780;2022-12-29T10:14:00;1.67;1.67;1.00
77320;PMS7003;66382;52.252;8.780;2022-12-29T10:16:40;1.00;1.00;1.00
77320;PMS7003;66382;52.252;8.780;2022-12-29T10:19:16;1.25;1.25;1.00
77320;PMS7003;66382;52.252;8.780;2022-12-29T10:22:04;1.00;1.00;1.00
77320;PMS7003;66382;52.252;8.780;2022-12-29T10:24:40;1.00;1.00;1.00
77320;PMS7003;66382;52.252;8.780;2022-12-29T10:27:10;1.00;1.00;1.00
77320;PMS7003;66382;52.252;8.780;2022-12-29T10:29:38;0.00;0.00;0.00
77320;PMS7003;66382;52.252;8.780;2022-12-29T10:32:12;1.00;1.00;1.00
77320;PMS7003;66382;52.252;8.780;2022-12-29T10:34:49;1.25;1.00;1.00
77320;PMS7003;66382;52.252;8.780;2022-12-29T10:37:18;0.50;0.50;0.50
77320;PMS7003;66382;52.252;8.780;2022-12-29T10:39:54;1.00;1.00;1.00
77320;PMS7003;66382;52.252;8.780;2022-12-29T10:42:21;0.00;0.00;0.00
77320;PMS7003;66382;52.252;8.780;2022-12-29T10:44:52;1.00;1.00;1.00
77320;PMS7003;66382;52.252;8.780;2022-12-29T10:47:20;0.25;0.25;0.25
77320;PMS7003;66382;52.252;8.780;2022-12-29T10:49:50;0.25;0.25;0.25
77320;PMS7003;66382;52.252;8.780;2022-12-29T10:52:16;1.00;1.00;0.00
77320;PMS7003;66382;52.252;8.780;2022-12-29T10:54:45;1.00;1.00;1.00
77320;PMS7003;66382;52.252;8.780;2022-12-29T10:57:22;1.00;1.00;1.00
77320;PMS7003;66382;52.252;8.780;2022-12-29T10:59:51;1.00;1.00;1.00
77320;PMS7003;66382;52.252;8.780;2022-12-29T11:02:23;1.67;1.67;0.33
77320;PMS7003;66382;52.252;8.780;2022-12-29T11:05:06;1.00;1.00;1.00
77320;PMS7003;66382;52.252;8.780;2022-12-29T11:07:41;2.25;2.25;1.75
77320;PMS7003;66382;52.252;8.780;2022-12-29T11:10:17;1.00;1.00;1.00
77320;PMS7003;66382;52.252;8.780;2022-12-29T11:12:54;2.00;2.00;1.25
77320;PMS7003;66382;52.252;8.780;2022-12-29T11:15:21;1.50;1.50;1.00
77320;PMS7003;66382;52.252;8.780;2022-12-29T11:17:48;0.33;0.33;0.00
77320;PMS7003;66382;52.252;8.780;2022-12-29T11:20:29;1.50;1.50;1.00
77320;PMS7003;66382;52.252;8.780;2022-12-29T11:22:57;1.00;1.00;1.00
77320;PMS7003;66382;52.252;8.780;2022-12-29T11:25:23;1.00;1.00;1.00
77320;PMS7003;66382;52.252;8.780;2022-12-29T11:27:54;1.00;1.00;1.00
77320;PMS7003;66382;52.252;8.780;2022-12-29T11:30:22;2.00;2.00;1.67
77320;PMS7003;66382;52.252;8.780;2022-12-29T11:32:51;1.00;1.00;1.00
77320;PMS7003;66382;52.252;8.780;2022-12-29T11:35:29;1.00;1.00;1.00
77320;PMS7003;66382;52.252;8.780;2022-12-29T11:37:56;1.67;1.67;1.00
77320;PMS7003;66382;52.252;8.780;2022-12-29T11:40:23;2.00;2.00;1.67
77320;PMS7003;66382;52.252;8.780;2022-12-29T11:42:50;2.00;2.00;2.00
77320;PMS7003;66382;52.252;8.780;2022-12-29T11:45:18;2.67;2.67;2.67
77320;PMS7003;66382;52.252;8.780;2022-12-29T11:47:47;1.25;1.25;1.00
77320;PMS7003;66382;52.252;8.780;2022-12-29T11:50:18;1.33;1.33;1.00
77320;PMS7003;66382;52.252;8.780;2022-12-29T11:52:45;1.67;1.67;1.00
77320;PMS7003;66382;52.252;8.780;2022-12-29T11:55:16;1.33;1.33;1.00
77320;PMS7003;66382;52.252;8.780;2022-12-29T11:57:44;1.00;1.00;0.67
77320;PMS7003;66382;52.252;8.780;2022-12-29T12:00:14;1.00;1.00;1.00
77320;PMS7003;66382;52.252;8.780;2022-12-29T12:02:42;1.00;1.00;1.00
77320;PMS7003;66382;52.252;8.780;2022-12-29T12:05:14;2.00;2.00;1.00
77320;PMS7003;66382;52.252;8.780;2022-12-29T12:07:50;1.67;1.67;1.00
77320;PMS7003;66382;52.252;8.780;2022-12-29T12:10:21;1.00;1.00;1.00
77320;PMS7003;66382;52.252;8.780;2022-12-29T12:12:53;2.00;2.00;1.33
77320;PMS7003;66382;52.252;8.780;2022-12-29T12:15:25;2.33;2.33;1.67
77320;PMS7003;66382;52.252;8.780;2022-12-29T12:17:56;1.00;1.00;0.75
77320;PMS7003;66382;52.252;8.780;2022-12-29T12:20:32;1.00;1.00;0.67
77320;PMS7003;66382;52.252;8.780;2022-12-29T12:23:06;0.00;0.00;0.00
77320;PMS7003;66382;52.252;8.780;2022-12-29T12:25:59;1.00;1.00;1.00
77320;PMS7003;66382;52.252;8.780;2022-12-29T12:28:32;1.00;1.00;1.00
77320;PMS7003;66382;52.252;8.780;2022-12-29T12:31:02;1.00;1.00;1.00
77320;PMS7003;66382;52.252;8.780;2022-12-29T12:33:41;1.67;1.67;1.00
77320;PMS7003;66382;52.252;8.780;2022-12-29T12:36:22;1.00;1.00;0.67
77320;PMS7003;66382;52.252;8.780;2022-12-29T12:39:00;1.00;1.00;1.00
77320;PMS7003;66382;52.252;8.780;2022-12-29T12:41:33;2.00;2.00;2.00
77320;PMS7003;66382;52.252;8.780;2022-12-29T12:44:10;1.00;1.00;1.00
77320;PMS7003;66382;52.252;8.780;2022-12-29T12:49:56;3.33;3.33;2.33
77320;PMS7003;66382;52.252;8.780;2022-12-29T12:52:33;6.67;6.67;4.33
77320;PMS7003;66382;52.252;8.780;2022-12-29T12:55:18;2.00;2.00;2.00
77320;PMS7003;66382;52.252;8.780;2022-12-29T12:57:56;0.00;0.00;0.00
77320;PMS7003;66382;52.252;8.780;2022-12-29T13:00:32;2.67;2.67;2.00
77320;PMS7003;66382;52.252;8.780;2022-12-29T13:03:08;2.00;2.00;2.00
77320;PMS7003;66382;52.252;8.780;2022-12-29T13:05:40;2.00;2.00;2.00
77320;PMS7003;66382;52.252;8.780;2022-12-29T13:08:32;2.00;2.00;2.00
77320;PMS7003;66382;52.252;8.780;2022-12-29T13:11:12;2.00;2.00;1.33
77320;PMS7003;66382;52.252;8.780;2022-12-29T13:13:55;2.67;2.67;2.00
77320;PMS7003;66382;52.252;8.780;2022-12-29T13:16:34;2.00;2.00;2.00
77320;PMS7003;66382;52.252;8.780;2022-12-29T13:19:08;3.00;3.00;2.67
77320;PMS7003;66382;52.252;8.780;2022-12-29T13:21:48;6.00;6.00;5.00
77320;PMS7003;66382;52.252;8.780;2022-12-29T13:24:27;3.00;3.00;2.67
77320;PMS7003;66382;52.252;8.780;2022-12-29T13:27:00;2.00;2.00;2.00
77320;PMS7003;66382;52.252;8.780;2022-12-29T13:29:32;2.00;2.00;2.00
77320;PMS7003;66382;52.252;8.780;2022-12-29T13:32:06;2.67;2.67;2.33
77320;PMS7003;66382;52.252;8.780;2022-12-29T13:34:48;2.00;2.00;1.00
77320;PMS7003;66382;52.252;8.780;2022-12-29T13:37:25;2.00;2.00;2.00
77320;PMS7003;66382;52.252;8.780;2022-12-29T13:39:57;2.00;2.00;2.00
77320;PMS7003;66382;52.252;8.780;2022-12-29T13:42:27;3.00;3.00;2.00
77320;PMS7003;66382;52.252;8.780;2022-12-29T13:44:54;1.67;1.67;1.33
77320;PMS7003;66382;52.252;8.780;2022-12-29T13:47:25;2.33;2.33;2.00
77320;PMS7003;66382;52.252;8.780;2022-12-29T13:49:54;1.00;1.00;1.00
77320;PMS7003;66382;52.252;8.780;2022-12-29T13:52:25;1.00;1.00;0.33
77320;PMS7003;66382;52.252;8.780;2022-12-29T13:55:02;0.25;0.25;0.25
77320;PMS7003;66382;52.252;8.780;2022-12-29T13:57:47;1.00;1.00;1.00
77320;PMS7003;66382;52.252;8.780;2022-12-29T14:00:18;2.00;2.00;1.33
77320;PMS7003;66382;52.252;8.780;2022-12-29T14:02:50;1.33;1.33;1.00
77320;PMS7003;66382;52.252;8.780;2022-12-29T14:05:36;2.00;2.00;1.00
77320;PMS7003;66382;52.252;8.780;2022-12-29T14:08:03;3.00;3.00;2.00
77320;PMS7003;66382;52.252;8.780;2022-12-29T14:10:34;1.00;1.00;1.00
77320;PMS7003;66382;52.252;8.780;2022-12-29T14:13:02;3.67;3.67;3.00
77320;PMS7003;66382;52.252;8.780;2022-12-29T14:15:30;10.50;10.50;8.00
77320;PMS7003;66382;52.252;8.780;2022-12-29T14:18:03;4.00;4.00;3.00
77320;PMS7003;66382;52.252;8.780;2022-12-29T14:20:34;2.00;2.00;2.00
77320;PMS7003;66382;52.252;8.780;2022-12-29T14:23:01;0.00;0.00;0.00
77320;PMS7003;66382;52.252;8.780;2022-12-29T14:26:00;1.00;1.00;1.00
77320;PMS7003;66382;52.252;8.780;2022-12-29T14:28:35;0.00;0.00;0.00
77320;PMS7003;66382;52.252;8.780;2022-12-29T14:31:02;0.00;0.00;0.00
77320;PMS7003;66382;52.252;8.780;2022-12-29T14:33:29;1.00;1.00;1.00
77320;PMS7003;66382;52.252;8.780;2022-12-29T14:35:57;1.00;1.00;0.00